createdAt,value
2022-10-06T05:25:08.818Z,59.50
2022-10-06T05:35:10.195Z,55.10
2022-10-06T05:45:11.567Z,51.50
2022-10-06T05:55:12.938Z,49.90
2022-10-06T06:05:14.317Z,48.10
2022-10-06T06:15:15.704Z,47.30
2022-10-06T06:25:17.070Z,47.10
2022-10-06T06:35:18.431Z,46.50
2022-10-06T06:45:19.824Z,45.70
2022-10-06T06:55:21.188Z,45.10
2022-10-06T07:05:22.561Z,45.10
2022-10-06T07:15:23.943Z,44.70
2022-10-06T07:25:26.319Z,45.00
2022-10-06T07:35:28.168Z,44.70
2022-10-06T07:45:29.637Z,44.70
2022-10-06T07:55:31.112Z,44.90
2022-10-06T08:05:32.488Z,44.40
2022-10-06T08:15:33.872Z,44.20
2022-10-06T08:25:35.276Z,44.10
2022-10-06T08:35:36.796Z,44.30
2022-10-06T08:45:38.997Z,44.00
2022-10-06T08:55:40.465Z,43.90
2022-10-06T09:05:41.853Z,43.80
2022-10-06T09:15:43.272Z,43.50
2022-10-06T09:25:44.673Z,42.90
2022-10-06T09:35:46.111Z,43.20
2022-10-06T09:45:47.497Z,43.60
2022-10-06T09:55:48.875Z,42.80
2022-10-06T10:05:50.428Z,42.60
2022-10-06T10:15:51.819Z,43.50
2022-10-06T10:25:53.235Z,44.10
2022-10-06T10:35:54.615Z,42.40
2022-10-06T10:45:55.983Z,43.80
2022-10-06T10:55:57.393Z,41.70
2022-10-06T11:05:58.769Z,41.90
2022-10-06T11:16:00.174Z,40.60
2022-10-06T11:26:01.601Z,38.80
2022-10-06T11:36:02.994Z,39.70
2022-10-06T11:46:04.405Z,45.30
2022-10-06T11:56:05.806Z,42.10
2022-10-06T12:06:07.199Z,41.50
2022-10-06T12:26:30.064Z,42.30
2022-10-06T12:36:31.429Z,41.50
2022-10-06T12:46:32.906Z,42.10
2022-10-06T12:56:34.332Z,42.40
2022-10-06T13:06:35.731Z,41.90
2022-10-06T13:16:37.165Z,42.50
2022-10-06T13:26:38.576Z,42.40
2022-10-06T13:36:39.969Z,41.10
2022-10-06T13:46:41.438Z,41.70
2022-10-06T13:56:42.865Z,42.10
2022-10-06T14:06:44.260Z,41.50
2022-10-06T14:16:45.641Z,41.80
2022-10-06T14:26:47.035Z,41.30
2022-10-06T14:36:48.421Z,40.90
2022-10-06T14:46:49.921Z,41.30
2022-10-06T14:56:51.341Z,41.40
2022-10-06T15:06:52.726Z,41.80
2022-10-06T15:16:54.122Z,41.60
2022-10-06T15:26:55.509Z,40.60
2022-10-06T15:36:56.904Z,40.40
2022-10-06T15:46:58.376Z,43.60
2022-10-06T15:56:59.796Z,44.10
2022-10-06T16:07:01.163Z,44.20
2022-10-06T16:17:02.573Z,44.60
2022-10-06T16:27:03.946Z,44.80
2022-10-06T16:37:05.312Z,44.90
2022-10-06T16:47:06.759Z,45.30
2022-10-06T16:57:08.195Z,45.20
2022-10-06T17:07:09.558Z,45.70
